createdAt,value
2019-05-30T00:00:41.847Z,3.23
2019-05-30T00:03:11.745Z,3.00
2019-05-30T00:05:41.064Z,3.50
2019-05-30T00:08:10.412Z,2.57
2019-05-30T00:10:39.947Z,3.20
2019-05-30T00:13:09.326Z,2.80
2019-05-30T00:15:38.658Z,3.10
2019-05-30T00:18:08.081Z,2.63
2019-05-30T00:20:37.796Z,3.60
2019-05-30T00:23:07.410Z,2.93
2019-05-30T00:25:37.106Z,3.03
2019-05-30T00:28:07.497Z,2.87
2019-05-30T00:30:37.067Z,2.53
2019-05-30T00:33:07.013Z,2.33
2019-05-30T00:35:36.625Z,2.83
2019-05-30T00:38:06.186Z,2.27
2019-05-30T00:40:35.666Z,2.30
2019-05-30T00:43:06.182Z,2.90
2019-05-30T00:45:35.748Z,2.70
2019-05-30T00:48:06.389Z,3.40
2019-05-30T00:50:35.919Z,2.60
2019-05-30T00:53:05.436Z,2.80
2019-05-30T00:55:34.855Z,2.47
2019-05-30T00:58:04.811Z,2.40
2019-05-30T01:00:43.285Z,4.47
2019-05-30T01:03:08.437Z,2.90
2019-05-30T01:05:36.879Z,2.70
2019-05-30T01:08:07.204Z,2.70
2019-05-30T01:10:36.727Z,2.57
2019-05-30T01:13:07.263Z,3.47
2019-05-30T01:15:36.754Z,2.57
2019-05-30T01:18:07.272Z,2.33
2019-05-30T01:20:37.206Z,2.17
2019-05-30T01:23:07.503Z,2.80
2019-05-30T01:25:37.001Z,2.57
2019-05-30T01:28:07.706Z,3.10
2019-05-30T01:30:37.366Z,3.00
2019-05-30T01:33:07.923Z,2.70
2019-05-30T01:35:37.530Z,2.50
2019-05-30T01:38:07.938Z,2.50
2019-05-30T01:40:37.586Z,2.70
2019-05-30T01:43:08.164Z,2.30
2019-05-30T01:45:37.738Z,2.63
2019-05-30T01:48:08.454Z,2.63
2019-05-30T01:50:38.201Z,2.47
2019-05-30T01:53:08.733Z,2.40
2019-05-30T01:55:38.322Z,2.63
2019-05-30T01:58:08.975Z,2.87
2019-05-30T02:00:39.629Z,2.30
2019-05-30T02:03:09.663Z,2.87
2019-05-30T02:05:39.209Z,2.37
2019-05-30T02:08:10.149Z,2.60
2019-05-30T02:10:39.844Z,2.40
2019-05-30T02:13:09.800Z,2.60
2019-05-30T02:15:39.611Z,2.50
2019-05-30T02:18:10.014Z,2.73
2019-05-30T02:20:39.957Z,3.00
2019-05-30T02:23:11.282Z,2.77
2019-05-30T02:25:40.567Z,2.57
2019-05-30T02:28:10.475Z,3.27
2019-05-30T02:30:39.929Z,2.27
2019-05-30T02:33:10.482Z,2.60
2019-05-30T02:35:40.918Z,2.50
2019-05-30T02:38:11.867Z,3.20
2019-05-30T02:40:41.680Z,2.13
2019-05-30T02:43:12.197Z,2.90
2019-05-30T02:45:41.972Z,2.70
2019-05-30T02:48:12.196Z,2.47
2019-05-30T02:50:42.145Z,2.97
2019-05-30T02:53:13.168Z,3.07
2019-05-30T02:55:43.031Z,2.60
2019-05-30T02:58:13.151Z,3.23
2019-05-30T03:00:44.282Z,3.10
2019-05-30T03:03:14.578Z,2.50
2019-05-30T03:05:44.517Z,2.60
2019-05-30T03:08:14.636Z,3.33
2019-05-30T03:10:44.264Z,2.77
2019-05-30T03:13:13.803Z,2.53
2019-05-30T03:15:43.345Z,2.80
2019-05-30T03:18:14.629Z,2.43
2019-05-30T03:20:44.380Z,2.60
2019-05-30T03:23:14.873Z,2.60
2019-05-30T03:25:44.564Z,2.40
2019-05-30T03:28:14.097Z,2.40
2019-05-30T03:30:44.973Z,2.50
2019-05-30T03:33:32.409Z,3.10
2019-05-30T03:35:45.645Z,3.10
2019-05-30T03:38:15.742Z,2.20
2019-05-30T03:40:45.244Z,2.63
2019-05-30T03:43:16.043Z,3.40
2019-05-30T03:45:46.012Z,2.53
2019-05-30T03:48:18.808Z,2.87
2019-05-30T04:04:19.027Z,2.83
2019-05-30T04:06:51.690Z,3.20
2019-05-30T04:09:25.077Z,2.63
2019-05-30T04:12:04.259Z,3.37
2019-05-30T04:14:36.680Z,3.43
2019-05-30T04:17:08.141Z,3.20
2019-05-30T04:19:37.261Z,3.33
2019-05-30T04:22:07.320Z,2.67
2019-05-30T04:24:37.299Z,3.30
2019-05-30T04:27:07.956Z,3.00
2019-05-30T04:29:38.125Z,3.60
2019-05-30T04:32:08.486Z,3.20
2019-05-30T04:34:38.455Z,3.20
2019-05-30T04:37:08.205Z,3.17
2019-05-30T04:39:37.855Z,2.80
2019-05-30T04:42:09.270Z,2.90
2019-05-30T04:44:38.416Z,2.97
2019-05-30T04:47:07.783Z,3.30
2019-05-30T04:49:37.382Z,2.53
2019-05-30T04:52:11.327Z,2.50
2019-05-30T04:54:37.813Z,2.80
2019-05-30T04:57:07.246Z,2.60
2019-05-30T04:59:36.621Z,3.07
2019-05-30T05:02:06.074Z,3.40
2019-05-30T05:04:35.468Z,3.00
2019-05-30T05:07:04.952Z,2.80
2019-05-30T05:09:34.409Z,2.63
2019-05-30T05:12:03.799Z,2.70
2019-05-30T05:14:33.261Z,2.57
2019-05-30T05:17:02.667Z,2.57
2019-05-30T05:19:31.966Z,2.13
2019-05-30T05:22:01.273Z,2.60
2019-05-30T05:24:30.529Z,2.50
2019-05-30T05:26:59.860Z,3.33
2019-05-30T05:29:29.197Z,2.60
2019-05-30T05:31:58.464Z,2.87
2019-05-30T05:34:27.724Z,2.47
2019-05-30T05:36:57.054Z,3.10
2019-05-30T05:39:26.387Z,2.53
2019-05-30T05:41:55.709Z,2.63
2019-05-30T05:44:25.013Z,3.10
2019-05-30T05:46:54.673Z,2.90
2019-05-30T05:49:24.939Z,3.17
2019-05-30T05:51:54.328Z,3.10
2019-05-30T05:54:24.916Z,3.33
2019-05-30T05:56:54.385Z,2.77
2019-05-30T05:59:23.665Z,3.03
2019-05-30T06:01:52.978Z,3.60
2019-05-30T06:04:23.249Z,2.90
2019-05-30T06:06:52.737Z,2.83
2019-05-30T06:09:22.645Z,2.73
2019-05-30T06:11:52.200Z,3.07
2019-05-30T06:14:21.923Z,2.73
2019-05-30T06:16:51.373Z,2.87
2019-05-30T06:19:21.188Z,2.80
2019-05-30T06:21:53.986Z,2.47
2019-05-30T06:24:21.662Z,3.07
2019-05-30T06:26:50.969Z,2.77
2019-05-30T06:29:20.709Z,2.80
2019-05-30T06:31:50.009Z,2.40
2019-05-30T06:34:31.373Z,2.67
2019-05-30T06:36:50.316Z,2.37
2019-05-30T06:39:21.265Z,3.17
2019-05-30T06:41:50.703Z,2.57
2019-05-30T06:44:20.297Z,2.20
2019-05-30T06:46:49.933Z,3.00
2019-05-30T06:49:20.508Z,2.50
2019-05-30T06:51:49.975Z,2.70
2019-05-30T06:54:21.355Z,3.07
2019-05-30T06:56:50.678Z,2.90
2019-05-30T06:59:19.970Z,2.20
2019-05-30T07:01:52.054Z,2.70
2019-05-30T07:04:20.745Z,2.43
2019-05-30T07:06:51.125Z,2.30
2019-05-30T07:09:21.055Z,2.60
2019-05-30T07:11:50.348Z,2.63
2019-05-30T07:14:19.617Z,2.07
2019-05-30T07:16:48.946Z,3.30
2019-05-30T07:19:18.230Z,2.37
2019-05-30T07:21:47.901Z,2.37
2019-05-30T07:24:17.169Z,1.93
2019-05-30T07:26:46.939Z,2.43
2019-05-30T07:29:16.634Z,2.00
2019-05-30T07:31:45.963Z,2.17
2019-05-30T07:34:15.250Z,2.20
2019-05-30T07:36:44.520Z,2.80
2019-05-30T07:39:13.809Z,2.80
2019-05-30T07:42:04.957Z,3.40
2019-05-30T07:44:17.657Z,3.30
2019-05-30T07:46:46.961Z,2.17
2019-05-30T07:49:16.281Z,2.20
2019-05-30T07:51:45.848Z,2.13
2019-05-30T07:54:15.153Z,2.20
2019-05-30T07:56:44.477Z,2.60
2019-05-30T07:59:13.765Z,2.20
2019-05-30T08:01:43.109Z,2.57
2019-05-30T08:04:12.432Z,2.83
2019-05-30T08:06:41.783Z,2.50
2019-05-30T08:09:11.081Z,2.53
2019-05-30T08:11:40.381Z,2.40
2019-05-30T08:14:09.702Z,2.67
2019-05-30T08:16:39.004Z,2.10
2019-05-30T08:19:08.282Z,2.80
2019-05-30T08:21:38.296Z,2.50
2019-05-30T08:24:08.221Z,2.70
2019-05-30T08:26:38.467Z,2.53
2019-05-30T08:29:08.544Z,6.20
2019-05-30T08:31:38.894Z,2.40
2019-05-30T08:34:08.249Z,1.90
2019-05-30T08:36:37.661Z,2.67
2019-05-30T08:39:08.344Z,2.63
2019-05-30T08:41:38.008Z,2.50
2019-05-30T08:44:07.585Z,2.30
2019-05-30T08:46:37.853Z,2.60
2019-05-30T08:49:07.428Z,2.70
2019-05-30T08:51:36.721Z,2.37
2019-05-30T08:54:06.034Z,2.17
2019-05-30T08:56:36.435Z,2.60
2019-05-30T08:59:06.028Z,2.53
2019-05-30T09:01:36.095Z,2.23
2019-05-30T09:04:05.500Z,2.33
2019-05-30T09:06:35.804Z,2.03
2019-05-30T09:09:06.887Z,2.33
2019-05-30T09:11:37.371Z,2.13
2019-05-30T09:14:07.183Z,2.00
2019-05-30T09:16:36.513Z,1.87
2019-05-30T09:19:05.793Z,2.67
2019-05-30T09:21:35.164Z,2.60
2019-05-30T09:24:04.489Z,2.20
2019-05-30T09:26:33.866Z,2.90
2019-05-30T09:29:03.795Z,2.00
2019-05-30T09:31:33.348Z,2.13
2019-05-30T09:34:02.789Z,2.63
2019-05-30T09:36:32.177Z,2.43
2019-05-30T09:39:01.757Z,2.20
2019-05-30T09:41:31.061Z,3.17
2019-05-30T09:44:00.529Z,2.67
2019-05-30T09:46:29.820Z,2.50
2019-05-30T09:48:59.258Z,2.60
2019-05-30T09:51:28.868Z,2.37
2019-05-30T09:53:58.119Z,2.30
2019-05-30T09:56:27.446Z,2.83
2019-05-30T09:58:56.745Z,3.10
2019-05-30T10:01:26.045Z,2.40
2019-05-30T10:03:55.434Z,2.90
2019-05-30T10:06:29.506Z,3.00
2019-05-30T10:08:55.784Z,2.83
2019-05-30T10:11:25.120Z,3.10
2019-05-30T10:13:54.759Z,2.53
2019-05-30T10:16:24.029Z,3.03
2019-05-30T10:18:53.395Z,2.50
2019-05-30T10:21:22.817Z,2.10
2019-05-30T10:23:53.592Z,2.73
2019-05-30T10:26:23.114Z,2.70
2019-05-30T10:28:53.321Z,2.60
2019-05-30T10:31:22.812Z,2.47
2019-05-30T10:33:53.072Z,2.10
2019-05-30T10:36:22.636Z,2.33
2019-05-30T10:38:53.808Z,2.80
2019-05-30T10:41:23.387Z,2.23
2019-05-30T10:43:53.200Z,2.07
2019-05-30T10:46:22.674Z,2.90
2019-05-30T10:48:52.782Z,2.43
2019-05-30T10:51:22.203Z,3.17
2019-05-30T10:53:52.293Z,3.10
2019-05-30T10:56:22.589Z,1.73
2019-05-30T10:58:52.911Z,3.13
2019-05-30T11:01:22.404Z,2.63
2019-05-30T11:03:52.622Z,2.70
2019-05-30T11:07:01.239Z,2.73
2019-05-30T11:09:18.688Z,2.60
2019-05-30T11:11:48.618Z,2.10
2019-05-30T11:14:18.008Z,2.83
2019-05-30T11:16:48.536Z,2.30
2019-05-30T11:19:18.298Z,2.50
2019-05-30T11:21:47.860Z,2.20
2019-05-30T11:24:17.362Z,2.60
2019-05-30T11:26:46.746Z,2.50
2019-05-30T11:29:16.054Z,2.90
2019-05-30T11:31:45.337Z,2.80
2019-05-30T11:34:14.669Z,2.50
2019-05-30T11:36:44.016Z,2.20
2019-05-30T11:39:14.183Z,2.23
2019-05-30T11:41:43.466Z,2.47
2019-05-30T11:44:12.775Z,3.07
2019-05-30T11:46:42.091Z,2.40
2019-05-30T11:49:11.836Z,3.03
2019-05-30T11:51:41.138Z,2.70
2019-05-30T11:54:10.414Z,2.97
2019-05-30T11:56:39.718Z,2.67
2019-05-30T11:59:09.008Z,2.23
2019-05-30T12:01:38.386Z,2.97
2019-05-30T12:04:07.652Z,2.83
2019-05-30T12:06:36.947Z,2.50
2019-05-30T12:09:07.932Z,2.20
2019-05-30T12:11:37.541Z,2.23
2019-05-30T12:14:06.806Z,2.23
2019-05-30T12:16:36.850Z,2.93
2019-05-30T12:19:06.405Z,2.63
2019-05-30T12:21:35.691Z,3.23
2019-05-30T12:24:05.531Z,3.13
2019-05-30T12:26:34.959Z,2.50
2019-05-30T12:29:05.125Z,2.57
2019-05-30T12:31:34.456Z,2.57
2019-05-30T12:34:03.844Z,2.70
2019-05-30T12:36:33.120Z,2.80
2019-05-30T12:39:02.765Z,3.17
2019-05-30T12:41:32.379Z,2.80
2019-05-30T12:44:01.852Z,3.00
2019-05-30T12:46:31.166Z,2.70
2019-05-30T12:49:01.583Z,2.83
2019-05-30T12:51:31.166Z,2.80
2019-05-30T12:54:00.823Z,2.77
2019-05-30T12:56:30.588Z,3.20
2019-05-30T12:59:01.116Z,2.57
2019-05-30T13:01:30.549Z,2.80
2019-05-30T13:04:01.029Z,3.30
2019-05-30T13:06:30.565Z,3.03
2019-05-30T13:08:59.829Z,2.70
2019-05-30T13:11:29.209Z,3.37
2019-05-30T13:13:58.963Z,2.70
2019-05-30T13:16:28.274Z,3.03
2019-05-30T13:18:57.932Z,2.87
2019-05-30T13:21:27.431Z,3.00
2019-05-30T13:23:57.543Z,2.90
2019-05-30T13:26:27.258Z,2.80
2019-05-30T13:28:56.561Z,2.87
2019-05-30T13:31:25.821Z,2.47
2019-05-30T13:33:55.120Z,3.23
2019-05-30T13:36:24.416Z,2.67
2019-05-30T13:38:53.707Z,2.90
2019-05-30T13:41:22.992Z,2.67
2019-05-30T13:43:52.363Z,3.50
2019-05-30T13:46:21.656Z,3.33
2019-05-30T13:48:51.032Z,2.97
2019-05-30T13:51:20.395Z,3.30
2019-05-30T13:53:49.685Z,3.43
2019-05-30T13:56:18.967Z,3.23
2019-05-30T13:58:48.256Z,3.57
2019-05-30T14:01:17.848Z,3.13
2019-05-30T14:03:47.130Z,3.43
2019-05-30T14:06:16.429Z,3.40
2019-05-30T14:08:45.723Z,3.20
2019-05-30T14:11:15.026Z,3.20
2019-05-30T14:13:44.841Z,3.00
2019-05-30T14:16:14.155Z,3.17
2019-05-30T14:18:43.440Z,3.40
2019-05-30T14:21:12.720Z,3.10
2019-05-30T14:23:42.037Z,3.00
2019-05-30T14:26:11.767Z,3.23
2019-05-30T14:28:41.086Z,3.27
2019-05-30T14:31:11.977Z,3.00
2019-05-30T14:33:41.943Z,2.80
2019-05-30T14:36:13.300Z,3.00
2019-05-30T14:38:57.000Z,2.30
2019-05-30T14:41:13.538Z,3.70
2019-05-30T14:43:42.997Z,3.07
2019-05-30T14:46:12.468Z,3.10
2019-05-30T14:48:41.816Z,3.30
2019-05-30T14:51:12.960Z,2.70
2019-05-30T14:53:42.265Z,3.03
2019-05-30T14:56:11.675Z,3.10
2019-05-30T14:58:40.969Z,3.10
2019-05-30T15:01:11.218Z,2.80
2019-05-30T15:03:40.621Z,2.70
2019-05-30T15:06:12.933Z,3.13
2019-05-30T15:08:41.339Z,3.03
2019-05-30T15:11:11.708Z,3.47
2019-05-30T15:13:41.289Z,3.43
2019-05-30T15:16:10.860Z,3.27
2019-05-30T15:18:40.377Z,3.60
2019-05-30T15:21:10.341Z,3.00
2019-05-30T15:23:39.799Z,3.20
2019-05-30T15:26:09.977Z,2.70
2019-05-30T15:28:39.381Z,3.77
2019-05-30T15:31:10.225Z,3.37
2019-05-30T15:33:39.996Z,3.20
2019-05-30T15:36:09.284Z,3.07
2019-05-30T15:38:38.584Z,3.63
2019-05-30T15:41:08.921Z,3.83
2019-05-30T15:43:38.357Z,3.57
2019-05-30T15:46:08.025Z,3.33
2019-05-30T15:48:37.709Z,3.60
2019-05-30T15:51:07.004Z,2.90
2019-05-30T15:53:36.272Z,3.00
2019-05-30T15:56:05.584Z,2.83
2019-05-30T15:58:34.869Z,2.57
2019-05-30T16:01:04.583Z,2.57
2019-05-30T16:03:34.323Z,3.17
2019-05-30T16:06:03.667Z,2.70
2019-05-30T16:08:33.035Z,3.10
2019-05-30T16:11:02.310Z,2.87
2019-05-30T16:13:31.813Z,3.17
2019-05-30T16:16:01.437Z,2.90
2019-05-30T16:18:30.707Z,3.27
2019-05-30T16:21:00.069Z,2.87
2019-05-30T16:23:29.370Z,2.30
2019-05-30T16:25:58.665Z,3.50
2019-05-30T16:28:27.977Z,3.10
2019-05-30T16:30:57.279Z,2.40
2019-05-30T16:33:26.607Z,2.50
2019-05-30T16:35:56.044Z,2.30
2019-05-30T16:38:26.430Z,3.00
2019-05-30T16:40:55.825Z,2.87
2019-05-30T16:43:26.560Z,3.27
2019-05-30T16:45:56.032Z,2.93
2019-05-30T16:48:26.632Z,2.40
2019-05-30T16:50:56.114Z,2.70
2019-05-30T16:53:25.904Z,3.07
2019-05-30T16:55:55.414Z,2.90
2019-05-30T16:58:25.776Z,2.70
2019-05-30T17:00:55.563Z,3.67
2019-05-30T17:03:25.860Z,3.03
2019-05-30T17:05:55.537Z,3.23
2019-05-30T17:08:24.895Z,3.43
2019-05-30T17:10:54.201Z,2.70
2019-05-30T17:13:23.875Z,2.37
2019-05-30T17:15:53.402Z,2.80
2019-05-30T17:18:22.689Z,3.10
2019-05-30T17:20:52.409Z,3.30
2019-05-30T17:23:22.695Z,2.93
2019-05-30T17:25:52.275Z,2.80
2019-05-30T17:28:22.362Z,3.20
2019-05-30T17:30:51.974Z,2.60
2019-05-30T17:33:22.403Z,2.70
2019-05-30T17:35:52.297Z,2.80
2019-05-30T17:38:22.424Z,2.00
2019-05-30T17:40:51.837Z,2.60
2019-05-30T17:43:21.526Z,2.57
2019-05-30T17:45:50.829Z,3.00
2019-05-30T17:48:21.190Z,2.63
2019-05-30T17:50:50.794Z,3.03
2019-05-30T17:53:20.097Z,2.63
2019-05-30T17:55:49.425Z,3.67
2019-05-30T17:58:20.520Z,3.00
2019-05-30T18:00:50.038Z,2.67
2019-05-30T18:03:20.335Z,2.77
2019-05-30T18:05:49.683Z,3.00
2019-05-30T18:08:20.732Z,3.00
2019-05-30T18:10:53.790Z,3.10
2019-05-30T18:13:21.218Z,4.20
2019-05-30T18:15:51.251Z,2.73
2019-05-30T18:18:21.189Z,3.13
2019-05-30T18:20:50.636Z,4.00
2019-05-30T18:23:19.925Z,4.00
2019-05-30T18:25:49.223Z,3.40
2019-05-30T18:28:18.557Z,3.83
2019-05-30T18:30:47.945Z,3.50
2019-05-30T18:33:17.271Z,4.63
2019-05-30T18:35:46.589Z,3.93
2019-05-30T18:38:15.872Z,3.97
2019-05-30T18:40:45.246Z,3.40
2019-05-30T18:43:15.025Z,4.97
2019-05-30T18:45:45.976Z,3.67
2019-05-30T18:48:15.294Z,4.37
2019-05-30T18:50:44.685Z,3.20
2019-05-30T18:53:13.996Z,4.50
2019-05-30T18:55:43.292Z,3.90
2019-05-30T18:58:12.606Z,4.30
2019-05-30T19:00:42.299Z,3.80
2019-05-30T19:03:11.690Z,4.50
2019-05-30T19:05:40.975Z,4.10
2019-05-30T19:08:10.372Z,3.70
2019-05-30T19:10:39.689Z,4.00
2019-05-30T19:13:08.993Z,4.30
2019-05-30T19:15:38.307Z,3.90
2019-05-30T19:18:09.269Z,3.87
2019-05-30T19:20:38.717Z,4.00
2019-05-30T19:23:08.028Z,3.80
2019-05-30T19:25:37.879Z,4.00
2019-05-30T19:28:07.302Z,3.70
2019-05-30T19:30:36.967Z,4.93
2019-05-30T19:33:06.515Z,4.40
2019-05-30T19:35:36.200Z,4.60
2019-05-30T19:38:07.495Z,5.00
2019-05-30T19:40:37.934Z,4.67
2019-05-30T19:43:07.479Z,3.73
2019-05-30T19:45:37.923Z,4.17
2019-05-30T19:48:07.661Z,4.57
2019-05-30T19:50:36.978Z,5.00
2019-05-30T19:53:06.374Z,4.50
2019-05-30T19:55:35.684Z,4.53
2019-05-30T19:58:05.397Z,4.40
2019-05-30T20:00:50.087Z,5.73
2019-05-30T20:03:06.404Z,5.87
2019-05-30T20:05:36.667Z,4.87
2019-05-30T20:08:05.994Z,4.80
2019-05-30T20:10:35.326Z,4.73
2019-05-30T20:13:04.661Z,4.83
2019-05-30T20:15:35.486Z,5.33
2019-05-30T20:18:04.888Z,4.90
2019-05-30T20:20:51.738Z,4.63
2019-05-30T20:23:06.657Z,4.77
2019-05-30T20:25:39.832Z,4.80
2019-05-30T20:28:07.085Z,5.67
2019-05-30T20:30:37.071Z,4.83
2019-05-30T20:33:06.509Z,4.80
2019-05-30T20:35:37.545Z,5.10
2019-05-30T20:38:07.434Z,5.40
2019-05-30T20:40:37.016Z,4.67
2019-05-30T20:43:06.348Z,6.43
2019-05-30T20:45:39.535Z,6.13
2019-05-30T20:48:06.698Z,5.87
2019-05-30T20:50:37.058Z,5.70
2019-05-30T20:53:06.599Z,5.83
2019-05-30T20:55:36.345Z,4.97
2019-05-30T20:58:05.904Z,5.07
2019-05-30T21:00:40.094Z,5.13
2019-05-30T21:03:09.811Z,5.00
2019-05-30T21:05:40.087Z,5.57
2019-05-30T21:08:09.380Z,5.30
2019-05-30T21:10:41.284Z,4.83
2019-05-30T21:13:10.747Z,4.87
2019-05-30T21:15:41.752Z,4.87
2019-05-30T21:18:11.147Z,4.47
2019-05-30T21:20:42.124Z,4.43
2019-05-30T21:23:11.508Z,4.10
2019-05-30T21:25:40.999Z,4.70
2019-05-30T21:28:10.519Z,4.80
2019-05-30T21:30:41.229Z,4.43
2019-05-30T21:33:10.813Z,4.30
2019-05-30T21:35:41.680Z,5.47
2019-05-30T21:38:11.231Z,5.30
2019-05-30T21:40:40.524Z,4.63
2019-05-30T21:43:09.818Z,4.63
2019-05-30T21:45:40.328Z,4.77
2019-05-30T21:48:09.766Z,4.80
2019-05-30T21:50:40.948Z,4.50
2019-05-30T21:53:10.165Z,5.17
2019-05-30T21:55:39.623Z,6.00
2019-05-30T21:58:08.947Z,5.53
2019-05-30T22:01:34.254Z,5.10
2019-05-30T22:04:04.366Z,5.70
2019-05-30T22:06:33.659Z,5.23
2019-05-30T22:09:03.923Z,5.03
2019-05-30T22:11:33.442Z,5.77
2019-05-30T22:14:02.757Z,5.83
2019-05-30T22:16:32.035Z,5.40
2019-05-30T22:19:01.389Z,5.33
2019-05-30T22:21:30.657Z,5.70
2019-05-30T22:23:59.962Z,5.10
2019-05-30T22:26:29.370Z,5.07
2019-05-30T22:28:58.771Z,5.30
2019-05-30T22:31:28.103Z,5.27
2019-05-30T22:33:57.900Z,5.70
2019-05-30T22:36:27.213Z,5.33
2019-05-30T22:38:56.517Z,6.50
2019-05-30T22:41:25.948Z,6.30
2019-05-30T22:43:55.260Z,5.40
2019-05-30T22:46:24.961Z,5.23
2019-05-30T22:48:54.313Z,5.73
2019-05-30T22:51:27.283Z,7.00
2019-05-30T22:53:55.022Z,5.63
2019-05-30T22:56:24.407Z,5.70
2019-05-30T22:58:53.874Z,6.10
2019-05-30T23:01:23.405Z,6.23
2019-05-30T23:03:53.994Z,6.23
2019-05-30T23:06:23.782Z,5.30
2019-05-30T23:08:53.053Z,5.93
2019-05-30T23:11:22.726Z,6.63
2019-05-30T23:13:52.042Z,6.50
2019-05-30T23:16:21.381Z,6.63
2019-05-30T23:18:50.705Z,6.57
2019-05-30T23:21:20.436Z,5.80
2019-05-30T23:23:51.727Z,5.80
2019-05-30T23:26:20.738Z,6.67
2019-05-30T23:28:50.059Z,6.57
2019-05-30T23:31:19.329Z,6.70
2019-05-30T23:33:50.200Z,6.30
2019-05-30T23:36:19.706Z,5.90
2019-05-30T23:38:49.015Z,7.00
2019-05-30T23:41:18.365Z,6.60
2019-05-30T23:43:57.932Z,6.57
2019-05-30T23:46:18.695Z,7.20
2019-05-30T23:48:48.025Z,6.17
2019-05-30T23:51:17.344Z,6.87
2019-05-30T23:53:46.661Z,7.00
2019-05-30T23:56:15.979Z,5.60
2019-05-30T23:58:45.270Z,6.13
